Time;durP1;ratioP1;P1;durP2;ratioP2;P2;SDS_P1;SDS_P2;PMS_P1;PMS_P2;Temp;Humidity;BMP_temperature;BMP_pressure;BME280_temperature;BME280_humidity;BME280_pressure;Samples;Min_cycle;Max_cycle;Signal;HPM_P1;HPM_P2
2021/12/12 00:00:53;;;;;;;77.38;40.20;;;3.60;99.90;;;;;;4994412;28;20038;-57
2021/12/12 00:03:36;;;;;;;77.25;39.10;;;3.50;99.90;;;;;;4983086;28;20038;-57
2021/12/12 00:06:16;;;;;;;72.85;36.35;;;3.70;99.90;;;;;;4988518;28;20092;-58
2021/12/12 00:08:46;;;;;;;82.93;39.10;;;3.50;99.90;;;;;;4989278;28;20054;-55
2021/12/12 00:11:17;;;;;;;72.63;38.47;;;3.60;99.90;;;;;;4994067;28;20050;-57
2021/12/12 00:13:50;;;;;;;80.57;38.93;;;3.60;99.90;;;;;;4993701;28;20069;-57
2021/12/12 00:16:16;;;;;;;81.10;39.35;;;;;;;;;;5001612;28;20398;-57
2021/12/12 00:18:42;;;;;;;63.15;37.38;;;;;;;;;;5073596;28;20568;-56
2021/12/12 00:21:11;;;;;;;72.15;37.40;;;3.60;99.90;;;;;;5079778;28;20504;-58
2021/12/12 00:23:37;;;;;;;75.70;38.15;;;;;;;;;;5074612;28;20040;-58
2021/12/12 00:26:05;;;;;;;71.70;38.05;;;3.60;99.90;;;;;;5075410;28;20041;-57
2021/12/12 00:28:31;;;;;;;71.55;36.58;;;3.50;99.90;;;;;;5076945;28;20512;-55
2021/12/12 00:31:07;;;;;;;70.53;36.67;;;3.70;99.90;;;;;;5073666;28;20047;-56
2021/12/12 00:33:33;;;;;;;72.93;35.33;;;;;;;;;;5073463;28;20403;-57
2021/12/12 00:35:59;;;;;;;67.07;33.38;;;;;;;;;;5078915;28;20500;-56
2021/12/12 00:38:28;;;;;;;64.50;35.53;;;3.60;99.90;;;;;;5076775;28;20040;-57
2021/12/12 00:40:57;;;;;;;76.35;36.80;;;3.70;99.90;;;;;;5066946;28;20040;-57
2021/12/12 00:43:29;;;;;;;66.82;34.10;;;3.60;99.90;;;;;;5077810;28;20040;-57
2021/12/12 00:45:56;;;;;;;;;;;3.60;99.90;;;;;;5068587;28;20060;-55
2021/12/12 00:48:26;;;;;;;66.78;36.03;;;3.70;99.90;;;;;;5075531;28;19924;-55
2021/12/12 00:50:52;;;;;;;69.35;36.92;;;;;;;;;;5078557;28;20483;-57
2021/12/12 00:53:21;;;;;;;67.75;34.38;;;3.70;99.90;;;;;;5079912;28;20045;-57
2021/12/12 00:55:49;;;;;;;63.38;34.08;;;3.80;99.90;;;;;;5077590;28;20115;-58
2021/12/12 00:58:17;;;;;;;67.72;34.28;;;3.70;99.90;;;;;;5081774;28;20496;-57
2021/12/12 01:00:50;;;;;;;68.65;34.33;;;3.80;99.90;;;;;;5082848;28;20508;-54
2021/12/12 01:03:28;;;;;;;60.72;33.33;;;3.70;99.90;;;;;;5077161;28;20036;-55
2021/12/12 01:05:58;;;;;;;63.20;31.98;;;3.80;99.90;;;;;;5070456;28;20493;-56
2021/12/12 01:08:27;;;;;;;59.78;33.17;;;3.80;99.90;;;;;;5078411;28;20511;-55
2021/12/12 01:10:58;;;;;;;59.38;30.65;;;3.70;99.90;;;;;;5078960;28;20040;-56
2021/12/12 01:13:24;;;;;;;62.72;29.40;;;;;;;;;;5080121;28;20063;-56
2021/12/12 01:16:30;;;;;;;60.13;33.80;;;3.90;99.90;;;;;;5070545;28;20047;-54
2021/12/12 01:19:00;;;;;;;67.28;32.42;;;4.00;99.90;;;;;;4998732;28;20546;-53
2021/12/12 01:21:35;;;;;;;56.85;31.05;;;3.50;99.90;;;;;;4988379;28;20070;-57
2021/12/12 01:24:08;;;;;;;59.20;32.15;;;4.00;99.90;;;;;;4982274;28;20046;-55
2021/12/12 01:26:34;;;;;;;64.35;32.22;;;4.00;99.90;;;;;;4991768;28;20588;-51
2021/12/12 01:29:01;;;;;;;66.97;32.60;;;4.00;99.90;;;;;;4996849;28;20049;-53
2021/12/12 01:31:32;;;;;;;61.70;30.90;;;4.10;99.90;;;;;;4993025;28;20041;-51
2021/12/12 01:34:10;;;;;;;59.13;32.28;;;4.00;99.90;;;;;;4992867;28;20768;-55
2021/12/12 01:39:25;;;;;;;70.38;31.83;;;;;;;;;;4986443;28;20041;-56
2021/12/12 01:42:07;;;;;;;64.65;32.80;;;4.00;99.90;;;;;;4995150;28;20049;-52
2021/12/12 01:44:33;;;;;;;61.57;32.50;;;;;;;;;;4983315;28;20141;-55
2021/12/12 01:47:09;;;;;;;62.17;31.77;;;4.10;99.90;;;;;;4980596;28;20325;-59
2021/12/12 01:49:38;;;;;;;62.80;28.70;;;4.20;99.90;;;;;;4993758;28;20115;-56
2021/12/12 01:52:06;;;;;;;51.75;27.25;;;4.20;99.90;;;;;;4987454;28;20038;-55
2021/12/12 01:54:45;;;;;;;62.75;29.17;;;4.20;99.90;;;;;;4996114;28;20508;-53
2021/12/12 01:57:22;;;;;;;60.28;30.95;;;4.20;99.90;;;;;;5063183;28;20457;-56
2021/12/12 01:59:49;;;;;;;60.55;29.67;;;4.10;99.90;;;;;;5077195;28;20039;-52
2021/12/12 02:02:26;;;;;;;53.13;27.83;;;4.30;99.90;;;;;;5069111;28;20447;-55
2021/12/12 02:04:56;;;;;;;70.97;35.60;;;4.50;99.90;;;;;;5073295;28;20605;-55
2021/12/12 02:07:26;;;;;;;62.30;28.35;;;4.30;99.90;;;;;;5071318;28;20522;-54
2021/12/12 02:09:54;;;;;;;49.47;26.08;;;4.30;99.90;;;;;;5074450;28;20047;-53
2021/12/12 02:12:23;;;;;;;65.78;31.83;;;4.30;99.90;;;;;;5076311;28;20036;-57
2021/12/12 02:14:49;;;;;;;49.03;25.38;;;;;;;;;;5073356;28;20064;-55
2021/12/12 02:17:30;;;;;;;59.10;31.13;;;4.50;99.90;;;;;;5072223;28;20046;-53
2021/12/12 02:20:08;;;;;;;56.92;29.75;;;4.40;99.90;;;;;;5072575;28;20565;-53
2021/12/12 02:36:17;;;;;;;56.13;26.58;;;4.60;99.90;;;;;;5072467;28;20079;-55
2021/12/12 02:38:43;;;;;;;54.78;27.33;;;;;;;;;;5079137;28;20131;-56
2021/12/12 02:41:13;;;;;;;61.08;29.95;;;4.60;99.90;;;;;;5068072;28;20044;-55
2021/12/12 02:43:45;;;;;;;55.10;27.48;;;4.60;99.90;;;;;;5070630;28;20041;-55
2021/12/12 02:46:16;;;;;;;;;;;4.70;99.90;;;;;;5077382;28;20042;-56
2021/12/12 02:48:45;;;;;;;48.08;24.55;;;4.60;99.90;;;;;;5077981;28;20399;-55
2021/12/12 02:51:15;;;;;;;45.75;24.08;;;4.60;99.90;;;;;;5071979;28;20051;-53
2021/12/12 02:53:50;;;;;;;48.78;25.65;;;4.60;99.90;;;;;;5067725;28;20036;-57
2021/12/12 02:56:20;;;;;;;52.80;27.75;;;4.70;99.90;;;;;;5072619;28;20093;-53
2021/12/12 02:58:49;;;;;;;49.53;24.33;;;4.70;99.90;;;;;;5076050;28;20475;-52
2021/12/12 03:01:28;;;;;;;63.13;31.17;;;4.50;99.90;;;;;;5072590;28;20047;-52
2021/12/12 03:03:55;;;;;;;58.63;25.83;;;4.60;99.90;;;;;;5063460;28;20131;-53
2021/12/12 03:06:27;;;;;;;70.57;30.23;;;4.70;99.90;;;;;;5080137;28;20051;-54
2021/12/12 03:08:58;;;;;;;53.00;24.60;;;4.60;99.90;;;;;;5070709;28;20040;-52
2021/12/12 03:11:27;;;;;;;54.80;26.15;;;;;;;;;;5071625;28;20067;-55
2021/12/12 03:13:53;;;;;;;53.45;28.60;;;;;;;;;;5072485;28;20047;-52
2021/12/12 03:16:21;;;;;;;47.10;25.25;;;4.50;99.90;;;;;;5072274;28;20090;-53
2021/12/12 03:18:47;;;;;;;48.75;27.27;;;;;;;;;;5072672;28;20097;-57
2021/12/12 03:21:18;;;;;;;55.40;27.60;;;4.60;99.90;;;;;;5068136;28;20098;-52
2021/12/12 03:23:50;;;;;;;48.67;27.77;;;4.60;99.90;;;;;;5065271;28;20463;-54
2021/12/12 03:26:17;;;;;;;47.10;23.75;;;4.70;99.90;;;;;;5073864;28;20443;-55
2021/12/12 03:28:45;;;;;;;42.22;22.25;;;4.80;99.90;;;;;;5074215;28;20044;-55
2021/12/12 03:31:18;;;;;;;54.03;23.38;;;4.60;99.90;;;;;;5081607;28;20039;-54
2021/12/12 03:33:45;;;;;;;52.28;25.33;;;;;;;;;;5066471;28;20036;-56
2021/12/12 03:36:13;;;;;;;40.25;20.38;;;4.70;99.90;;;;;;5075333;28;20044;-52
2021/12/12 03:38:48;;;;;;;40.70;20.88;;;4.80;99.90;;;;;;5074776;28;20044;-52
2021/12/12 03:41:18;;;;;;;41.00;24.05;;;4.80;99.90;;;;;;5081807;28;20044;-55
2021/12/12 03:43:45;;;;;;;40.10;20.65;;;;;;;;;;5080969;28;20511;-55
2021/12/12 03:46:11;;;;;;;39.13;20.55;;;;;;;;;;5075554;28;20044;-56
2021/12/12 03:48:40;;;;;;;36.47;20.85;;;4.70;99.90;;;;;;5076203;28;20051;-55
2021/12/12 03:51:10;;;;;;;42.90;23.75;;;4.90;99.90;;;;;;5076073;28;20040;-54
2021/12/12 03:53:38;;;;;;;32.35;17.27;;;4.80;99.90;;;;;;5078573;28;20040;-56
2021/12/12 03:56:08;;;;;;;35.47;21.90;;;4.80;99.90;;;;;;5083560;28;20036;-52
2021/12/12 03:58:36;;;;;;;34.75;21.90;;;4.70;99.90;;;;;;5074791;28;20083;-54
2021/12/12 04:01:08;;;;;;;34.63;19.73;;;4.70;99.90;;;;;;5073097;28;20032;-55
2021/12/12 04:03:34;;;;;;;36.47;21.48;;;;;;;;;;5076408;28;20471;-55
2021/12/12 04:06:04;;;;;;;28.80;16.80;;;4.80;99.90;;;;;;5071141;28;20040;-57
2021/12/12 04:08:37;;;;;;;32.22;19.98;;;4.90;99.90;;;;;;5076132;28;20119;-55
2021/12/12 04:11:06;;;;;;;34.03;19.67;;;4.80;99.90;;;;;;5080037;28;20040;-54
2021/12/12 04:13:38;;;;;;;34.30;19.35;;;4.80;99.90;;;;;;5073980;28;20638;-56
2021/12/12 04:16:04;;;;;;;33.30;19.85;;;4.80;99.90;;;;;;5079152;28;20059;-55
2021/12/12 04:18:30;;;;;;;30.40;18.67;;;;;;;;;;5078574;28;20040;-53
2021/12/12 04:20:58;;;;;;;37.40;20.25;;;4.60;99.90;;;;;;5073088;28;20044;-53
2021/12/12 04:23:26;;;;;;;29.40;20.38;;;4.60;99.90;;;;;;5082370;28;20070;-56
2021/12/12 04:25:53;;;;;;;35.47;21.45;;;;;;;;;;5077660;28;20040;-52
2021/12/12 04:28:21;;;;;;;29.77;20.10;;;4.70;99.90;;;;;;5075672;28;20062;-56
2021/12/12 04:30:47;;;;;;;28.90;18.80;;;;;;;;;;5068122;28;20044;-52
2021/12/12 04:33:13;;;;;;;34.00;21.65;;;;;;;;;;5074716;28;20036;-55
2021/12/12 04:35:39;;;;;;;31.65;20.10;;;;;;;;;;5070055;28;20072;-53
2021/12/12 04:38:05;;;;;;;31.90;19.85;;;;;;;;;;5074229;28;20043;-54
2021/12/12 04:40:37;;;;;;;29.23;18.75;;;4.80;99.90;;;;;;5073060;28;20300;-56
2021/12/12 04:43:03;;;;;;;29.35;18.88;;;;;;;;;;5076206;28;20074;-55
2021/12/12 04:45:29;;;;;;;27.02;19.00;;;;;;;;;;5074108;28;20048;-55
2021/12/12 04:51:18;;;;;;;24.60;18.00;;;5.00;99.90;;;;;;5080743;28;20039;-57
2021/12/12 04:53:49;;;;;;;22.38;16.42;;;5.00;99.90;;;;;;5073206;28;20036;-57
2021/12/12 04:56:22;;;;;;;21.73;16.00;;;5.00;99.90;;;;;;5073036;28;20109;-58
2021/12/12 04:59:06;;;;;;;23.83;16.30;;;5.00;99.90;;;;;;5079269;28;20055;-53
2021/12/12 05:01:41;;;;;;;22.02;13.52;;;4.80;99.90;;;;;;5074857;28;20149;-55
2021/12/12 05:04:19;;;;;;;22.73;15.93;;;5.00;99.90;;;;;;5071912;28;20302;-57
2021/12/12 05:07:01;;;;;;;21.75;15.40;;;5.00;99.90;;;;;;5072463;28;20566;-55
2021/12/12 05:10:01;;;;;;;21.30;15.18;;;4.90;99.90;;;;;;5079670;28;20046;-56
2021/12/12 05:12:27;;;;;;;24.30;17.42;;;;;;;;;;4987742;28;20137;-52
2021/12/12 05:15:00;;;;;;;23.58;14.65;;;4.90;99.90;;;;;;4993855;28;20128;-55
2021/12/12 05:17:39;;;;;;;25.13;16.75;;;4.90;99.90;;;;;;4990008;28;20515;-55
2021/12/12 05:20:16;;;;;;;27.45;16.40;;;4.90;99.90;;;;;;4989312;28;20041;-54
2021/12/12 05:22:49;;;;;;;22.88;15.52;;;4.90;99.90;;;;;;4985022;28;20086;-54
2021/12/12 05:25:23;;;;;;;23.42;16.63;;;4.90;99.90;;;;;;4991129;28;20121;-56
2021/12/12 05:27:53;;;;;;;20.88;12.40;;;5.10;99.90;;;;;;5000580;28;20050;-57
2021/12/12 05:30:28;;;;;;;21.30;15.73;;;5.20;99.90;;;;;;4991275;28;20077;-55
2021/12/12 05:32:56;;;;;;;21.55;15.90;;;5.20;99.90;;;;;;4994582;28;20049;-54
2021/12/12 05:35:27;;;;;;;25.98;16.98;;;5.10;99.90;;;;;;4991924;28;20193;-57
2021/12/12 05:37:56;;;;;;;25.23;17.40;;;5.20;99.90;;;;;;4997617;28;20071;-53
2021/12/12 05:40:24;;;;;;;26.92;17.48;;;5.20;99.90;;;;;;5000306;28;20084;-54
2021/12/12 05:42:52;;;;;;;24.73;17.83;;;5.20;99.90;;;;;;4991863;28;20097;-54
2021/12/12 05:45:20;;;;;;;28.35;18.90;;;5.10;99.90;;;;;;4983213;28;20057;-57
2021/12/12 05:47:47;;;;;;;20.67;15.48;;;;;;;;;;5005224;28;20113;-54
2021/12/12 05:50:15;;;;;;;30.88;19.58;;;5.30;99.90;;;;;;5073912;28;20036;-58
2021/12/12 05:52:45;;;;;;;24.00;14.52;;;5.40;99.90;;;;;;5071995;28;20520;-56
2021/12/12 05:55:14;;;;;;;28.05;18.60;;;5.20;99.90;;;;;;5069147;28;20032;-56
2021/12/12 05:57:43;;;;;;;28.65;20.50;;;5.30;99.90;;;;;;5079721;28;20134;-52
2021/12/12 06:00:14;;;;;;;29.25;19.40;;;5.30;99.90;;;;;;5071805;28;20374;-55
2021/12/12 06:02:41;;;;;;;28.70;19.08;;;;;;;;;;5071824;28;20028;-57
2021/12/12 06:05:08;;;;;;;27.08;17.98;;;5.30;99.90;;;;;;5074973;28;20059;-57
2021/12/12 06:07:36;;;;;;;32.10;19.92;;;5.50;99.90;;;;;;5066284;28;20521;-57
2021/12/12 06:10:09;;;;;;;30.63;20.92;;;5.40;99.90;;;;;;5063465;28;20759;-56
2021/12/12 06:12:36;;;;;;;28.25;19.67;;;5.30;99.90;;;;;;5065436;28;20040;-56
2021/12/12 06:15:07;;;;;;;28.60;19.20;;;5.40;99.90;;;;;;5066706;28;20456;-55
2021/12/12 06:17:33;;;;;;;27.63;19.40;;;5.50;99.90;;;;;;5064054;28;20028;-57
2021/12/12 06:20:03;;;;;;;26.38;17.52;;;5.50;99.90;;;;;;5078228;28;20042;-52
2021/12/12 06:22:29;;;;;;;31.42;19.90;;;;;;;;;;5066369;28;20052;-57
2021/12/12 06:24:55;;;;;;;28.90;20.98;;;;;;;;;;5073909;28;20054;-57
2021/12/12 06:27:23;;;;;;;35.15;20.48;;;5.50;99.90;;;;;;5070997;28;20512;-55
2021/12/12 06:29:52;;;;;;;33.80;21.05;;;5.50;99.90;;;;;;5068412;28;20097;-57
2021/12/12 06:32:18;;;;;;;31.38;21.13;;;;;;;;;;5073568;28;20036;-58
2021/12/12 06:34:46;;;;;;;38.20;20.48;;;5.70;99.90;;;;;;5070931;28;20036;-56
2021/12/12 06:37:12;;;;;;;32.08;21.45;;;;;;;;;;5067433;28;20458;-56
2021/12/12 06:39:38;;;;;;;32.75;20.00;;;5.60;99.90;;;;;;5073836;28;20420;-56
2021/12/12 06:42:06;;;;;;;30.25;19.52;;;5.70;99.90;;;;;;5087623;28;20062;-56
2021/12/12 06:44:38;;;;;;;37.53;22.65;;;5.60;99.90;;;;;;5078397;28;20624;-55
2021/12/12 06:47:05;;;;;;;35.58;21.13;;;;;;;;;;5071369;28;20045;-58
2021/12/12 06:49:31;;;;;;;32.03;20.23;;;;;;;;;;5069801;28;20044;-55
2021/12/12 06:52:00;;;;;;;32.80;19.48;;;5.80;99.90;;;;;;5077084;28;20512;-58
2021/12/12 06:54:28;;;;;;;34.28;21.30;;;5.80;99.90;;;;;;5072394;28;20528;-57
2021/12/12 06:56:59;;;;;;;33.97;21.45;;;5.80;99.90;;;;;;5073498;28;20035;-57
2021/12/12 06:59:28;;;;;;;35.97;22.90;;;5.60;99.90;;;;;;5078848;28;20032;-52
2021/12/12 07:01:55;;;;;;;28.30;17.33;;;;;;;;;;5075484;28;20128;-54
2021/12/12 07:04:21;;;;;;;31.25;20.35;;;5.90;99.90;;;;;;5071021;28;20774;-53
2021/12/12 07:06:52;;;;;;;32.15;20.10;;;5.80;99.90;;;;;;5064910;28;20044;-55
2021/12/12 07:09:20;;;;;;;30.05;19.10;;;5.90;99.90;;;;;;5072030;28;20043;-52
2021/12/12 07:11:46;;;;;;;34.75;21.35;;;;;;;;;;5070164;28;20036;-56
2021/12/12 07:14:16;;;;;;;31.25;19.15;;;5.80;99.90;;;;;;5072318;28;20043;-56
2021/12/12 07:16:43;;;;;;;35.05;21.13;;;5.70;99.90;;;;;;5074409;28;20083;-56
2021/12/12 07:19:09;;;;;;;34.28;20.98;;;5.90;99.90;;;;;;5068933;28;20036;-57
2021/12/12 07:21:36;;;;;;;43.42;21.23;;;;;;;;;;5067966;28;20504;-56
2021/12/12 07:24:06;;;;;;;36.75;21.95;;;5.90;99.90;;;;;;5079938;28;20101;-55
2021/12/12 07:26:34;;;;;;;43.00;22.58;;;5.90;99.90;;;;;;5071697;28;20041;-55
2021/12/12 07:29:00;;;;;;;37.90;22.02;;;;;;;;;;5073764;28;20068;-58
2021/12/12 07:31:29;;;;;;;45.45;22.88;;;5.90;99.90;;;;;;5079049;28;20075;-56
2021/12/12 07:33:59;;;;;;;50.22;24.75;;;6.00;99.90;;;;;;5071520;28;20036;-56
2021/12/12 07:36:26;;;;;;;46.15;24.67;;;6.10;99.90;;;;;;5071299;28;20127;-55
2021/12/12 07:38:56;;;;;;;53.60;24.42;;;6.00;99.90;;;;;;5073282;28;20082;-56
2021/12/12 07:41:27;;;;;;;53.92;27.25;;;6.00;99.90;;;;;;5071214;28;20041;-54
2021/12/12 07:43:53;;;;;;;52.53;26.75;;;;;;;;;;5072617;28;20036;-53
2021/12/12 07:46:20;;;;;;;42.65;21.45;;;;;;;;;;5080110;28;20086;-54
2021/12/12 07:48:48;;;;;;;53.67;25.38;;;6.20;99.90;;;;;;5076971;28;20060;-56
2021/12/12 07:51:15;;;;;;;58.10;25.67;;;6.10;99.90;;;;;;5074239;28;20059;-55
2021/12/12 07:53:41;;;;;;;50.35;21.08;;;;;;;;;;5071951;28;20081;-56
2021/12/12 07:56:07;;;;;;;53.70;25.20;;;6.20;99.90;;;;;;5072909;28;20114;-56
2021/12/12 07:58:34;;;;;;;49.58;23.58;;;6.40;99.90;;;;;;5072356;28;20036;-55
2021/12/12 08:01:01;;;;;;;57.25;26.02;;;;;;;;;;5075380;28;20063;-55
2021/12/12 08:03:32;;;;;;;48.33;22.35;;;6.20;99.90;;;;;;5070021;28;20047;-57
2021/12/12 08:06:00;;;;;;;41.60;20.77;;;6.30;99.90;;;;;;5064379;28;20082;-56
2021/12/12 08:08:29;;;;;;;59.63;26.90;;;6.00;99.90;;;;;;5076663;28;20785;-54
2021/12/12 08:10:57;;;;;;;59.85;26.45;;;6.30;99.90;;;;;;5068520;28;20074;-57
2021/12/12 08:13:23;;;;;;;59.53;26.40;;;6.20;99.90;;;;;;5083024;28;20036;-55
2021/12/12 08:15:51;;;;;;;63.22;28.15;;;6.30;99.90;;;;;;5074375;28;20052;-54
2021/12/12 08:18:19;;;;;;;61.78;27.38;;;6.20;99.90;;;;;;5078113;28;20640;-55
2021/12/12 08:20:48;;;;;;;46.63;19.38;;;6.40;99.90;;;;;;5066111;28;20049;-57
2021/12/12 08:23:16;;;;;;;59.72;26.38;;;6.20;99.90;;;;;;5074295;28;20072;-57
2021/12/12 08:25:43;;;;;;;61.30;28.20;;;6.30;99.90;;;;;;5078800;28;20134;-57
2021/12/12 08:28:10;;;;;;;60.30;26.67;;;;;;;;;;5078104;28;20585;-57
2021/12/12 08:30:37;;;;;;;61.45;26.98;;;6.40;99.90;;;;;;5074720;28;20067;-56
2021/12/12 08:33:05;;;;;;;62.00;27.27;;;6.40;99.90;;;;;;5068618;28;20037;-56
2021/12/12 08:35:31;;;;;;;62.47;27.75;;;;;;;;;;5083225;28;20085;-57
2021/12/12 08:38:01;;;;;;;64.30;26.83;;;6.40;99.90;;;;;;5070802;28;20041;-56
2021/12/12 08:40:32;;;;;;;61.75;25.48;;;6.50;99.90;;;;;;5083568;28;20416;-55
2021/12/12 08:42:58;;;;;;;67.07;29.73;;;;;;;;;;5070638;28;20058;-56
2021/12/12 08:45:30;;;;;;;60.55;28.35;;;6.40;99.90;;;;;;5077041;28;20074;-57
2021/12/12 08:47:58;;;;;;;64.78;28.95;;;6.70;99.90;;;;;;5069272;28;20066;-55
2021/12/12 08:50:28;;;;;;;66.60;28.38;;;4.80;99.90;;;;;;5076645;28;20051;-57
2021/12/12 08:52:54;;;;;;;63.17;28.17;;;;;;;;;;5078005;28;20063;-57
2021/12/12 08:55:30;;;;;;;81.20;29.92;;;6.70;99.90;;;;;;5076209;28;20037;-56
2021/12/12 08:58:03;;;;;;;76.15;30.77;;;6.60;99.90;;;;;;5080101;28;20032;-57
2021/12/12 09:00:51;;;;;;;82.50;31.10;;;6.80;99.90;;;;;;5074689;28;20476;-55
2021/12/12 09:03:33;;;;;;;75.40;28.80;;;6.80;99.90;;;;;;5069285;28;20060;-55
2021/12/12 09:05:59;;;;;;;;;;;6.80;99.90;;;;;;5079185;28;20040;-57
2021/12/12 09:08:36;;;;;;;80.95;29.20;;;6.80;99.90;;;;;;5073351;28;19927;-52
2021/12/12 09:11:07;;;;;;;78.78;30.83;;;7.00;99.90;;;;;;5086802;28;20045;-57
2021/12/12 09:13:43;;;;;;;88.68;32.72;;;7.10;99.90;;;;;;5072760;28;20531;-54
2021/12/12 09:16:30;;;;;;;92.97;32.22;;;6.90;99.90;;;;;;5077158;28;20516;-58
2021/12/12 09:19:26;;;;;;;99.57;33.30;;;6.80;99.90;;;;;;5077765;28;20075;-54
2021/12/12 09:21:52;;;;;;;108.57;33.90;;;;;;;;;;5066031;28;20119;-57
2021/12/12 09:24:49;;;;;;;115.38;36.15;;;7.20;99.90;;;;;;5081139;28;20128;-56
2021/12/12 09:27:45;;;;;;;106.70;36.38;;;7.20;99.90;;;;;;5078904;28;20501;-58
2021/12/12 09:30:15;;;;;;;108.32;34.25;;;7.30;99.90;;;;;;4994409;28;20145;-57
2021/12/12 09:32:47;;;;;;;106.88;36.22;;;7.40;99.90;;;;;;4991544;28;20172;-56
2021/12/12 09:35:20;;;;;;;119.38;40.28;;;7.40;99.90;;;;;;4999736;28;20057;-53
2021/12/12 09:38:00;;;;;;;108.70;35.10;;;7.20;99.90;;;;;;4981951;28;20458;-57
2021/12/12 09:41:23;;;;;;;112.22;36.00;;;7.40;99.90;;;;;;4994145;28;20199;-58
2021/12/12 09:44:01;;;;;;;115.43;35.60;;;7.50;99.90;;;;;;4919090;29;20040;-56
2021/12/12 09:47:25;;;;;;;116.45;35.53;;;7.50;99.90;;;;;;4897122;29;20437;-58
2021/12/12 09:53:03;;;;;;;111.40;34.83;;;7.60;99.90;;;;;;4917376;29;20112;-57
2021/12/12 09:55:40;;;;;;;115.72;36.65;;;7.70;99.90;;;;;;4904140;29;20100;-57
2021/12/12 09:58:22;;;;;;;113.72;34.35;;;7.50;99.90;;;;;;4917083;29;20077;-55
2021/12/12 10:01:00;;;;;;;98.72;34.40;;;7.70;99.90;;;;;;4909136;29;20091;-55
2021/12/12 10:04:10;;;;;;;100.30;32.42;;;7.60;99.90;;;;;;4909675;29;20055;-54
2021/12/12 10:06:36;;;;;;;90.72;31.45;;;;;;;;;;4872494;29;20155;-54
2021/12/12 10:09:14;;;;;;;102.00;32.20;;;7.80;99.90;;;;;;4933467;29;20091;-56
2021/12/12 10:12:02;;;;;;;89.15;31.58;;;7.80;99.90;;;;;;4928145;29;20055;-56
2021/12/12 10:14:43;;;;;;;101.68;32.72;;;7.70;99.90;;;;;;4945903;28;20124;-56
2021/12/12 10:17:22;;;;;;;94.57;33.42;;;9.70;99.90;;;;;;4982095;28;20522;-57
2021/12/12 10:19:59;;;;;;;101.60;31.20;;;7.80;99.90;;;;;;4981155;28;20424;-57
2021/12/12 10:22:49;;;;;;;100.50;33.17;;;7.90;99.90;;;;;;4995326;28;20840;-58
2021/12/12 10:25:21;;;;;;;113.78;34.88;;;7.80;99.90;;;;;;4988912;28;20565;-58
2021/12/12 10:28:06;;;;;;;106.65;31.77;;;7.90;99.90;;;;;;4988014;28;20135;-58
2021/12/12 10:30:43;;;;;;;96.45;30.25;;;7.90;99.90;;;;;;4991872;28;20093;-58
2021/12/12 10:33:40;;;;;;;98.47;32.97;;;8.00;99.90;;;;;;4986534;28;20042;-59
2021/12/12 10:36:10;;;;;;;107.85;32.30;;;7.90;99.90;;;;;;4989819;28;20046;-58
2021/12/12 10:38:51;;;;;;;100.45;31.60;;;8.00;99.90;;;;;;4972313;28;20103;-57
2021/12/12 10:41:35;;;;;;;86.53;30.52;;;7.90;99.90;;;;;;4986746;28;20132;-58
2021/12/12 10:44:19;;;;;;;94.93;30.90;;;7.90;99.90;;;;;;5042372;28;20079;-57
2021/12/12 10:47:12;;;;;;;96.43;30.67;;;8.00;99.90;;;;;;5071697;28;20659;-58
2021/12/12 10:50:11;;;;;;;85.90;29.80;;;8.10;99.90;;;;;;5071186;28;20098;-57
2021/12/12 10:52:44;;;;;;;98.38;29.23;;;8.10;99.90;;;;;;5073050;28;20178;-58
2021/12/12 10:55:42;;;;;;;88.80;28.80;;;8.00;99.90;;;;;;5071036;28;20119;-58
2021/12/12 10:58:21;;;;;;;82.25;29.50;;;8.10;99.90;;;;;;5073935;28;20742;-58
2021/12/12 11:00:54;;;;;;;87.50;30.15;;;8.10;99.90;;;;;;5071602;28;20043;-58
2021/12/12 11:03:59;;;;;;;82.05;28.52;;;8.00;99.90;;;;;;5080107;28;20118;-58
2021/12/12 11:06:25;;;;;;;88.72;29.83;;;;;;;;;;4999584;28;21359;-58
2021/12/12 11:08:59;;;;;;;95.53;31.40;;;8.30;99.90;;;;;;4999054;28;20135;-55
2021/12/12 11:11:34;;;;;;;69.35;26.92;;;8.10;99.90;;;;;;5000586;28;20108;-57
2021/12/12 11:14:19;;;;;;;95.03;29.85;;;8.10;99.90;;;;;;5000510;28;20192;-57
2021/12/12 11:16:57;;;;;;;92.18;29.27;;;8.30;99.90;;;;;;5000067;28;20077;-58
2021/12/12 11:19:41;;;;;;;90.68;31.38;;;8.20;99.90;;;;;;4999615;28;20053;-58
2021/12/12 11:22:43;;;;;;;89.20;28.95;;;8.30;99.90;;;;;;4999091;28;20600;-55
2021/12/12 11:25:18;;;;;;;80.82;27.90;;;8.30;99.90;;;;;;4998706;28;20060;-58
2021/12/12 11:27:48;;;;;;;84.72;27.17;;;8.40;99.90;;;;;;4998395;28;20073;-55
2021/12/12 11:30:46;;;;;;;88.53;29.02;;;8.50;99.90;;;;;;4998563;28;20041;-55
2021/12/12 11:33:15;;;;;;;77.68;26.13;;;8.30;99.90;;;;;;4960315;28;20824;-57
2021/12/12 11:35:46;;;;;;;71.70;26.13;;;8.50;99.90;;;;;;4960499;28;20047;-56
2021/12/12 11:38:22;;;;;;;69.90;26.40;;;8.60;99.90;;;;;;4960374;28;20141;-54
2021/12/12 11:40:58;;;;;;;54.22;23.23;;;8.40;99.90;;;;;;4960687;28;20341;-56
2021/12/12 11:43:44;;;;;;;70.82;23.85;;;8.60;99.90;;;;;;5017698;28;20135;-53
2021/12/12 11:46:32;;;;;;;64.57;24.60;;;8.40;99.90;;;;;;5019466;28;20076;-57
2021/12/12 11:49:11;;;;;;;71.75;25.40;;;8.50;99.90;;;;;;5020790;28;20553;-53
2021/12/12 11:52:09;;;;;;;54.10;23.17;;;8.50;99.90;;;;;;5022460;28;20445;-55
2021/12/12 11:54:49;;;;;;;66.45;24.38;;;8.50;99.90;;;;;;4964557;28;20073;-54
2021/12/12 11:57:22;;;;;;;67.47;24.77;;;8.60;99.90;;;;;;4963623;28;20145;-57
2021/12/12 12:00:02;;;;;;;60.67;23.23;;;8.60;99.90;;;;;;4948583;28;20074;-52
2021/12/12 12:02:44;;;;;;;69.00;23.63;;;8.70;99.90;;;;;;4963442;28;20043;-52
2021/12/12 12:05:32;;;;;;;64.88;24.85;;;8.60;99.90;;;;;;4962381;28;20190;-54
2021/12/12 12:08:26;;;;;;;59.75;23.30;;;8.60;99.90;;;;;;4961120;28;20126;-55
2021/12/12 12:11:23;;;;;;;50.20;20.95;;;8.70;99.90;;;;;;5006229;28;20568;-52
2021/12/12 12:13:56;;;;;;;53.03;21.33;;;8.70;99.90;;;;;;5006787;28;20108;-56
2021/12/12 12:16:48;;;;;;;59.10;21.95;;;8.60;99.90;;;;;;5009809;28;20729;-55
2021/12/12 12:19:45;;;;;;;65.07;23.73;;;8.60;99.90;;;;;;5019567;28;20123;-55
2021/12/12 12:22:38;;;;;;;67.78;22.33;;;8.60;99.90;;;;;;5014251;28;20379;-57
2021/12/12 12:25:18;;;;;;;55.80;22.02;;;8.60;99.90;;;;;;4993678;28;20177;-53
2021/12/12 12:28:08;;;;;;;65.85;22.27;;;8.60;99.90;;;;;;4983422;28;20049;-56
2021/12/12 12:30:34;;;;;;;60.40;22.42;;;8.80;99.90;;;;;;4960896;28;20125;-55
2021/12/12 12:33:02;;;;;;;60.35;21.58;;;8.70;99.90;;;;;;4962376;28;20161;-53
2021/12/12 12:36:05;;;;;;;56.15;21.50;;;8.70;99.90;;;;;;4963253;28;20047;-55
2021/12/12 12:38:49;;;;;;;;;;;8.70;99.90;;;;;;4961998;28;20050;-54
2021/12/12 12:41:33;;;;;;;51.83;20.85;;;8.70;99.90;;;;;;4962601;28;19926;-55
2021/12/12 12:44:49;;;;;;;60.72;21.73;;;8.50;99.90;;;;;;4961428;28;20054;-55
2021/12/12 12:47:38;;;;;;;47.83;19.10;;;8.80;99.90;;;;;;4961732;28;20058;-56
2021/12/12 12:50:42;;;;;;;63.83;22.20;;;8.80;99.90;;;;;;4962680;28;20347;-54
2021/12/12 12:53:26;;;;;;;51.22;20.83;;;8.70;99.90;;;;;;4961672;28;20043;-56
2021/12/12 12:56:29;;;;;;;53.05;21.45;;;8.80;99.90;;;;;;4962338;28;20054;-57
2021/12/12 12:59:10;;;;;;;;;;;8.60;99.90;;;;;;4961576;28;20078;-54
2021/12/12 13:01:40;;;;;;;51.33;20.20;;;8.70;99.90;;;;;;4984572;28;19928;-56
2021/12/12 13:04:59;;;;;;;49.97;18.98;;;8.80;99.90;;;;;;5023797;28;20049;-56
2021/12/12 13:08:17;;;;;;;42.38;18.48;;;8.80;99.90;;;;;;4988976;28;20591;-57
2021/12/12 13:10:48;;;;;;;45.92;20.25;;;9.00;99.90;;;;;;4986215;28;20125;-56
2021/12/12 13:13:19;;;;;;;59.10;21.23;;;8.90;99.90;;;;;;4986035;28;20073;-57
2021/12/12 13:16:05;;;;;;;56.35;20.52;;;8.80;99.90;;;;;;4973567;28;20375;-54
2021/12/12 13:18:39;;;;;;;52.60;20.38;;;8.80;99.90;;;;;;4982924;28;20734;-58
2021/12/12 13:21:16;;;;;;;58.00;20.35;;;8.90;99.90;;;;;;4982347;28;20067;-59
2021/12/12 13:23:58;;;;;;;57.53;19.40;;;10.60;99.90;;;;;;4990882;28;20042;-59
2021/12/12 13:26:48;;;;;;;52.53;19.73;;;8.90;99.90;;;;;;4990622;28;20042;-58
2021/12/12 13:29:44;;;;;;;51.95;18.52;;;8.90;99.90;;;;;;4986867;28;20436;-59
2021/12/12 13:32:21;;;;;;;53.08;19.35;;;9.10;99.90;;;;;;4989424;28;20127;-59
2021/12/12 13:35:01;;;;;;;51.33;18.63;;;9.00;99.90;;;;;;4992377;28;20050;-59
2021/12/12 13:38:02;;;;;;;42.95;17.98;;;9.10;99.90;;;;;;4991429;28;20112;-60
2021/12/12 13:40:31;;;;;;;38.55;16.20;;;9.10;99.90;;;;;;4982661;28;20052;-59
2021/12/12 13:43:22;;;;;;;43.33;17.50;;;9.20;99.90;;;;;;5012740;28;20635;-59
2021/12/12 13:45:59;;;;;;;37.00;15.57;;;9.20;99.90;;;;;;5004086;28;20064;-59
2021/12/12 13:48:47;;;;;;;44.42;17.67;;;9.20;99.90;;;;;;4998961;28;20050;-60
2021/12/12 13:51:30;;;;;;;34.50;15.00;;;9.20;99.90;;;;;;5000895;28;20045;-60
2021/12/12 13:54:10;;;;;;;30.83;14.07;;;9.20;99.90;;;;;;5004760;28;20038;-60